Terminal Aerodrome Forecast
Issued by NWS

Home | Current Version | Previous Version | Text Only | Print | Product List | Glossary On
Versions: 1 2 3 4 5 6 7 8 9 10 11 12 13 14 15 16 17 18 19
000
FTUS43 KDLH 281134
TAFBRD
TAF
KBRD 281134Z 2812/2912 02008KT P6SM BKN025
     FM281800 01007KT P6SM SCT025
     FM290000 VRB02KT P6SM FEW020
     FM290600 00000KT 3SM BR SKC=

USA.gov is the U.S. government's official web portal to all federal, state and local government web resources and services.